Time;durP1;ratioP1;P1;durP2;ratioP2;P2;SDS_P1;SDS_P2;PMS_P1;PMS_P2;Temp;Humidity;BMP_temperature;BMP_pressure;BME280_temperature;BME280_humidity;BME280_pressure;Samples;Min_cycle;Max_cycle;Signal;HPM_P1;HPM_P2
2023/10/26 00:00:15;;;;;;;10.23;3.92;;;;;;;13.02;99.24;99191.81;5074020;28;20044;-62
2023/10/26 00:02:43;;;;;;;5.95;3.17;;;;;;;13.00;99.76;99200.44;5074996;28;20041;-62
2023/10/26 00:05:10;;;;;;;6.97;3.90;;;;;;;13.04;99.92;99200.53;5075587;28;20059;-62
2023/10/26 00:07:38;;;;;;;6.22;3.80;;;;;;;13.02;100.00;99189.81;5073903;28;20059;-63
2023/10/26 00:10:06;;;;;;;7.03;3.85;;;;;;;12.98;100.00;99186.19;5075208;28;20053;-56
2023/10/26 00:12:33;;;;;;;7.18;3.92;;;;;;;12.95;100.00;99191.66;5075055;28;20063;-56
2023/10/26 00:15:01;;;;;;;7.78;3.42;;;;;;;12.91;100.00;99183.28;5074734;28;20044;-57
2023/10/26 00:17:28;;;;;;;10.23;4.20;;;;;;;12.80;100.00;99179.50;5073487;28;20056;-55
2023/10/26 00:19:56;;;;;;;7.00;3.17;;;;;;;12.92;100.00;99176.59;5075319;28;20075;-54
2023/10/26 00:22:24;;;;;;;6.22;3.50;;;;;;;12.82;100.00;99165.31;5073774;28;20071;-54
2023/10/26 00:24:51;;;;;;;6.20;3.28;;;;;;;12.86;100.00;99163.44;5035912;28;20037;-56
2023/10/26 00:27:18;;;;;;;6.72;3.63;;;;;;;12.79;100.00;99164.09;5074886;28;20056;-56
2023/10/26 00:29:46;;;;;;;8.10;3.05;;;;;;;12.81;100.00;99164.53;5074359;28;20059;-56
2023/10/26 00:32:13;;;;;;;6.35;3.17;;;;;;;13.02;100.00;99162.19;5069653;28;20044;-55
2023/10/26 00:34:41;;;;;;;12.52;3.20;;;;;;;12.89;100.00;99162.69;5074254;28;20511;-55
2023/10/26 00:37:09;;;;;;;7.80;3.17;;;;;;;12.94;100.00;99154.09;5072914;28;20044;-56
2023/10/26 00:39:36;;;;;;;7.70;2.78;;;;;;;12.75;100.00;99152.19;5074407;28;20048;-56
2023/10/26 00:42:04;;;;;;;6.93;2.78;;;;;;;13.08;100.00;99151.63;5080996;28;20044;-59
2023/10/26 00:44:31;;;;;;;6.40;3.08;;;;;;;12.78;100.00;99142.38;5037537;28;20052;-62
2023/10/26 00:47:00;;;;;;;7.30;2.95;;;;;;;12.71;100.00;99145.78;5073032;28;20053;-63
2023/10/26 00:49:27;;;;;;;6.18;2.80;;;;;;;12.75;100.00;99146.66;5072832;28;20487;-62
2023/10/26 00:52:00;;;;;;;5.75;3.30;;;;;;;12.82;100.00;99149.56;5074422;28;20063;-63
2023/10/26 00:54:28;;;;;;;8.07;3.20;;;;;;;12.88;100.00;99147.28;5039288;28;20040;-63
2023/10/26 00:56:56;;;;;;;8.15;3.13;;;;;;;12.97;100.00;99145.88;5074520;28;20057;-63
2023/10/26 00:59:27;;;;;;;6.90;2.95;;;;;;;12.81;100.00;99147.97;5072699;28;20045;-62
2023/10/26 01:01:56;;;;;;;7.05;3.03;;;;;;;12.91;100.00;99141.84;5072564;28;20067;-63
2023/10/26 01:04:23;;;;;;;5.05;2.92;;;;;;;12.92;100.00;99143.41;5073835;28;20071;-63
2023/10/26 01:06:50;;;;;;;5.80;2.95;;;;;;;12.86;100.00;99138.56;5073895;28;20411;-62
2023/10/26 01:09:19;;;;;;;6.07;3.13;;;;;;;12.76;100.00;99141.94;5072167;28;20048;-63
2023/10/26 01:11:47;;;;;;;8.07;2.78;;;;;;;12.85;100.00;99139.75;5072633;28;20063;-63
2023/10/26 01:14:15;;;;;;;7.20;3.25;;;;;;;12.82;100.00;99132.97;5074095;28;20048;-56
2023/10/26 01:16:43;;;;;;;7.30;3.35;;;;;;;12.98;100.00;99139.19;5072733;28;20044;-58
2023/10/26 01:19:11;;;;;;;7.00;3.10;;;;;;;12.97;100.00;99140.34;5073885;28;20059;-55
2023/10/26 01:21:51;;;;;;;5.85;3.47;;;;;;;12.94;100.00;99135.56;5073578;28;20502;-55
2023/10/26 01:24:19;;;;;;;7.82;3.80;;;;;;;13.08;100.00;99129.50;5068385;28;20044;-57
2023/10/26 01:26:47;;;;;;;8.82;3.83;;;;;;;12.87;100.00;99131.88;5072581;28;20052;-57
2023/10/26 01:29:14;;;;;;;5.03;3.40;;;;;;;12.64;100.00;99120.00;5071984;28;20055;-59
2023/10/26 01:31:42;;;;;;;8.13;3.75;;;;;;;12.62;100.00;99120.38;5073115;28;20048;-56
2023/10/26 01:34:09;;;;;;;10.70;5.53;;;;;;;12.63;100.00;99113.66;5073436;28;20745;-56
2023/10/26 01:36:36;;;;;;;10.10;4.32;;;;;;;12.77;100.00;99113.94;5073679;28;20048;-54
2023/10/26 01:39:04;;;;;;;8.68;4.10;;;;;;;12.57;100.00;99117.88;5073645;28;20063;-55
2023/10/26 01:41:32;;;;;;;7.70;4.00;;;;;;;12.68;100.00;99107.03;5079717;28;20055;-55
2023/10/26 01:44:00;;;;;;;6.25;4.10;;;;;;;12.61;100.00;99099.41;5073572;28;20052;-57
2023/10/26 01:46:29;;;;;;;9.23;4.78;;;;;;;12.58;100.00;99102.91;5073604;28;20055;-57
2023/10/26 01:48:56;;;;;;;7.78;4.68;;;;;;;12.53;100.00;99107.94;5072843;28;20044;-53
2023/10/26 01:51:24;;;;;;;8.23;4.32;;;;;;;12.60;100.00;99097.84;5073422;28;20048;-55
2023/10/26 01:53:51;;;;;;;6.82;4.70;;;;;;;12.65;100.00;99100.28;5073289;28;20055;-56
2023/10/26 01:56:18;;;;;;;8.90;5.03;;;;;;;12.67;100.00;99106.25;5073222;28;20051;-54
2023/10/26 01:58:46;;;;;;;8.23;4.88;;;;;;;12.59;100.00;99100.97;5055445;28;20048;-57
2023/10/26 02:01:13;;;;;;;7.70;4.57;;;;;;;12.58;100.00;99094.63;5070919;28;20060;-57
2023/10/26 02:03:41;;;;;;;7.00;4.55;;;;;;;12.70;100.00;99093.66;5072853;28;20063;-58
2023/10/26 02:06:09;;;;;;;8.07;4.88;;;;;;;12.83;100.00;99087.59;5071105;28;20048;-56
2023/10/26 02:08:37;;;;;;;7.25;5.22;;;;;;;12.84;100.00;99083.69;5072743;28;20052;-57
2023/10/26 02:11:05;;;;;;;7.82;5.18;;;;;;;12.75;100.00;99085.88;5088079;28;20051;-52
2023/10/26 02:13:32;;;;;;;9.30;4.90;;;;;;;12.77;100.00;99080.78;5070804;28;20582;-55
2023/10/26 02:16:01;;;;;;;7.90;5.07;;;;;;;12.69;100.00;99073.53;5070471;28;20044;-56
2023/10/26 02:18:30;;;;;;;7.75;5.05;;;;;;;12.75;100.00;99071.25;5067179;28;20045;-55
2023/10/26 02:20:58;;;;;;;6.03;4.82;;;;;;;12.78;100.00;99059.50;5053741;28;21503;-61
2023/10/26 02:23:26;;;;;;;7.10;4.80;;;;;;;12.81;100.00;99056.78;5068723;28;20063;-62
2023/10/26 02:25:54;;;;;;;6.70;4.47;;;;;;;12.76;100.00;99057.06;5061735;28;20052;-58
2023/10/26 02:28:23;;;;;;;6.20;4.43;;;;;;;12.79;100.00;99056.34;5067017;28;20059;-53
2023/10/26 02:30:50;;;;;;;7.93;4.50;;;;;;;12.80;100.00;99055.16;5069572;28;20056;-57
2023/10/26 02:33:18;;;;;;;6.60;4.28;;;;;;;12.72;100.00;99059.00;5069760;28;20052;-63
2023/10/26 02:35:46;;;;;;;7.30;4.40;;;;;;;12.89;100.00;99049.41;5072685;28;20053;-63
2023/10/26 02:38:13;;;;;;;7.22;4.95;;;;;;;12.91;100.00;99047.06;5065857;28;20045;-55
2023/10/26 02:40:41;;;;;;;6.22;4.03;;;;;;;12.94;100.00;99029.75;5077482;28;20513;-61
2023/10/26 02:43:08;;;;;;;6.20;4.10;;;;;;;12.86;100.00;99034.38;5072658;28;20041;-63
2023/10/26 02:45:35;;;;;;;5.88;3.70;;;;;;;12.97;100.00;99032.56;5071914;28;20075;-62
2023/10/26 02:48:03;;;;;;;5.93;3.78;;;;;;;12.96;100.00;99024.66;5070309;28;20061;-61
2023/10/26 02:50:30;;;;;;;6.25;3.22;;;;;;;12.96;100.00;99027.41;5054354;28;20044;-61
2023/10/26 02:53:01;;;;;;;5.43;3.60;;;;;;;13.04;100.00;99018.88;5072249;28;20049;-62
2023/10/26 02:55:28;;;;;;;4.55;3.17;;;;;;;13.13;100.00;99013.09;5070002;28;20056;-62
2023/10/26 02:57:56;;;;;;;7.35;3.70;;;;;;;12.88;100.00;99009.13;5070811;28;20411;-55
2023/10/26 03:00:24;;;;;;;6.28;3.60;;;;;;;13.13;100.00;99005.63;5072162;28;20060;-62
2023/10/26 03:02:52;;;;;;;5.45;3.80;;;;;;;12.93;100.00;98992.22;5070934;28;20053;-55
2023/10/26 03:05:19;;;;;;;5.10;3.60;;;;;;;12.86;100.00;98979.09;5072482;28;20040;-57
2023/10/26 03:07:48;;;;;;;4.70;3.50;;;;;;;12.93;100.00;98987.50;5071943;28;20064;-62
2023/10/26 03:10:15;;;;;;;4.45;3.28;;;;;;;12.86;100.00;98979.09;5071977;28;20052;-63
2023/10/26 03:12:45;;;;;;;5.00;3.30;;;;;;;12.91;100.00;98966.94;5072060;28;20048;-63
2023/10/26 03:15:12;;;;;;;5.45;3.38;;;;;;;12.86;100.00;98968.06;5072043;28;20052;-62
2023/10/26 03:17:41;;;;;;;4.70;3.33;;;;;;;12.72;100.00;98961.50;5052735;28;20076;-63
2023/10/26 03:20:09;;;;;;;4.97;3.88;;;;;;;12.77;100.00;98970.28;5071863;28;20152;-56
2023/10/26 03:22:36;;;;;;;5.97;4.20;;;;;;;12.79;100.00;98969.91;5072143;28;20044;-62
2023/10/26 03:25:05;;;;;;;5.78;4.05;;;;;;;12.92;100.00;98968.53;5054139;28;20044;-57
2023/10/26 03:27:32;;;;;;;6.30;3.55;;;;;;;13.02;100.00;98968.72;5071549;28;20044;-63
2023/10/26 03:29:59;;;;;;;9.38;4.25;;;;;;;12.89;100.00;98963.75;5071814;28;20048;-63
2023/10/26 03:32:27;;;;;;;5.28;3.65;;;;;;;12.86;100.00;98962.53;5073908;28;20055;-63
2023/10/26 03:34:57;;;;;;;6.25;3.75;;;;;;;12.91;100.00;98953.13;5074339;28;20380;-63
2023/10/26 03:37:25;;;;;;;5.20;3.70;;;;;;;12.76;100.00;98952.09;5075957;28;20056;-58
2023/10/26 03:39:53;;;;;;;5.32;3.63;;;;;;;12.99;100.00;98952.06;5079322;28;20047;-54
2023/10/26 03:42:20;;;;;;;4.85;3.53;;;;;;;12.78;100.00;98951.75;5078442;28;20049;-54
2023/10/26 03:44:48;;;;;;;4.93;3.47;;;;;;;12.88;100.00;98951.91;5075298;28;20060;-61
2023/10/26 03:47:17;;;;;;;5.05;3.35;;;;;;;12.96;100.00;98955.56;5074493;28;20044;-63
2023/10/26 03:49:45;;;;;;;;;;;;;;;12.91;100.00;98961.41;5075620;28;20045;-62
2023/10/26 03:52:15;;;;;;;5.05;3.35;;;;;;;12.98;100.00;98967.03;5074009;28;19920;-64
2023/10/26 03:54:43;;;;;;;5.38;3.45;;;;;;;13.10;100.00;98955.81;5074084;28;20048;-62
2023/10/26 03:57:10;;;;;;;6.35;3.90;;;;;;;13.04;100.00;98962.84;5075714;28;20053;-63
2023/10/26 03:59:38;;;;;;;4.70;3.10;;;;;;;13.08;100.00;98958.94;5074130;28;20142;-62
2023/10/26 04:02:05;;;;;;;5.65;3.42;;;;;;;13.17;100.00;98951.19;5074128;28;20052;-63
2023/10/26 04:04:33;;;;;;;4.63;3.40;;;;;;;13.14;100.00;98945.59;5075260;28;20052;-58
2023/10/26 04:07:00;;;;;;;4.20;3.10;;;;;;;13.14;100.00;98940.06;5075706;28;20051;-52
2023/10/26 04:09:28;;;;;;;5.13;3.40;;;;;;;13.19;100.00;98937.78;5075106;28;20056;-57
2023/10/26 04:11:55;;;;;;;8.07;3.45;;;;;;;13.25;100.00;98935.50;5075249;28;20056;-62
2023/10/26 04:14:23;;;;;;;4.90;3.55;;;;;;;13.02;100.00;98940.28;5074166;28;20055;-62
2023/10/26 04:16:50;;;;;;;4.63;3.70;;;;;;;13.14;100.00;98945.59;5073665;28;20052;-62
2023/10/26 04:19:17;;;;;;;5.57;3.50;;;;;;;13.13;100.00;98932.94;5075196;28;20056;-63
2023/10/26 04:21:45;;;;;;;8.98;4.20;;;;;;;13.00;100.00;98939.84;5074941;28;20498;-62
2023/10/26 04:24:12;;;;;;;5.57;4.15;;;;;;;13.09;100.00;98938.41;5074690;28;20052;-63
2023/10/26 04:26:40;;;;;;;6.65;4.35;;;;;;;13.18;100.00;98936.19;5075079;28;20126;-62
2023/10/26 04:29:08;;;;;;;10.15;4.93;;;;;;;12.98;100.00;98931.13;5056702;28;20539;-62
2023/10/26 04:31:35;;;;;;;6.25;4.78;;;;;;;12.91;100.00;98929.06;5074269;28;20060;-62
2023/10/26 04:34:02;;;;;;;6.82;4.18;;;;;;;12.93;100.00;98931.44;5075063;28;20415;-63
2023/10/26 04:36:30;;;;;;;6.50;5.10;;;;;;;12.98;100.00;98923.63;5074869;28;20451;-62
2023/10/26 04:38:57;;;;;;;6.32;4.70;;;;;;;12.94;100.00;98925.53;5074268;28;20052;-63
2023/10/26 04:41:24;;;;;;;7.72;5.85;;;;;;;13.08;100.00;98923.00;5082800;28;20052;-62
2023/10/26 04:43:53;;;;;;;7.32;5.70;;;;;;;13.01;100.00;98914.59;5071871;28;20056;-62
2023/10/26 04:46:20;;;;;;;6.90;5.35;;;;;;;13.09;100.00;98921.81;5074756;28;20392;-62
2023/10/26 04:48:47;;;;;;;6.72;5.28;;;;;;;13.10;100.00;98911.56;5072877;28;20057;-62
2023/10/26 04:51:15;;;;;;;6.88;5.45;;;;;;;13.23;100.00;98902.66;5039769;28;20049;-63
2023/10/26 04:53:42;;;;;;;6.80;5.43;;;;;;;13.15;100.00;98895.47;5073702;28;20513;-63
2023/10/26 04:56:11;;;;;;;6.65;5.10;;;;;;;13.14;100.00;98906.91;5074491;28;20059;-62
2023/10/26 04:58:38;;;;;;;6.97;4.82;;;;;;;13.24;100.00;98898.75;5073655;28;20055;-61
2023/10/26 05:01:06;;;;;;;8.40;5.47;;;;;;;13.42;100.00;98898.97;5072268;28;20514;-63
2023/10/26 05:03:33;;;;;;;6.07;4.78;;;;;;;13.41;100.00;98894.59;5075413;28;20063;-62
2023/10/26 05:06:01;;;;;;;5.93;4.72;;;;;;;13.49;100.00;98897.06;5072452;28;20048;-63
2023/10/26 05:08:28;;;;;;;6.22;4.68;;;;;;;13.39;100.00;98888.66;5074333;28;20048;-62
2023/10/26 05:10:56;;;;;;;5.90;4.45;;;;;;;13.49;100.00;98888.00;5073940;28;20055;-65
2023/10/26 05:13:24;;;;;;;5.45;4.05;;;;;;;13.44;100.00;98877.28;5072650;28;20123;-63
2023/10/26 05:15:51;;;;;;;5.18;3.75;;;;;;;13.53;100.00;98878.56;5073236;28;20522;-63
2023/10/26 05:18:18;;;;;;;6.20;4.25;;;;;;;13.45;100.00;98870.56;5075182;28;20066;-62
2023/10/26 05:20:48;;;;;;;6.82;4.45;;;;;;;13.55;100.00;98859.63;5053414;28;20052;-62
2023/10/26 05:23:16;;;;;;;6.18;4.05;;;;;;;13.65;100.00;98873.97;5071623;28;20052;-62
2023/10/26 05:25:43;;;;;;;5.72;4.25;;;;;;;13.68;100.00;98865.69;5073167;28;20048;-62
2023/10/26 05:28:10;;;;;;;8.00;4.80;;;;;;;13.69;100.00;98863.72;5072379;28;20044;-66
2023/10/26 05:30:38;;;;;;;5.72;4.10;;;;;;;13.65;100.00;98871.19;5072915;28;20056;-64
2023/10/26 05:33:05;;;;;;;6.75;4.68;;;;;;;13.77;100.00;98862.63;5072060;28;20495;-62
2023/10/26 05:35:33;;;;;;;7.32;4.50;;;;;;;13.77;100.00;98866.19;5069680;28;20052;-62
2023/10/26 05:38:00;;;;;;;6.50;4.57;;;;;;;13.89;100.00;98859.59;5073130;28;20567;-61
2023/10/26 05:40:28;;;;;;;8.05;5.85;;;;;;;14.01;100.00;98862.06;5078094;28;20555;-62
2023/10/26 05:42:55;;;;;;;7.93;4.40;;;;;;;14.05;100.00;98852.63;5071019;28;20052;-62
2023/10/26 05:45:22;;;;;;;6.10;4.25;;;;;;;13.97;100.00;98839.09;5073179;28;20055;-61
2023/10/26 05:47:51;;;;;;;7.03;4.55;;;;;;;14.26;100.00;98858.38;5073123;28;20056;-61
2023/10/26 05:50:20;;;;;;;5.55;3.65;;;;;;;14.23;100.00;98870.19;5071583;28;20052;-62
2023/10/26 05:52:47;;;;;;;7.95;4.38;;;;;;;14.19;100.00;98869.38;5071744;28;20064;-62
2023/10/26 05:55:14;;;;;;;5.72;2.80;;;;;;;14.22;100.00;98871.38;5071822;28;20762;-63
2023/10/26 05:57:43;;;;;;;3.85;2.47;;;;;;;14.39;100.00;98869.97;5069661;28;20040;-61
2023/10/26 06:00:11;;;;;;;5.25;2.55;;;;;;;14.73;100.00;98874.19;5072763;28;20048;-62
2023/10/26 06:02:39;;;;;;;4.13;2.28;;;;;;;14.71;100.00;98872.97;5069683;28;20044;-63
2023/10/26 06:05:07;;;;;;;3.92;2.10;;;;;;;14.78;100.00;98878.56;5067947;28;20399;-62
2023/10/26 06:07:34;;;;;;;3.55;1.83;;;;;;;14.88;100.00;98873.09;5074538;28;20056;-64
2023/10/26 06:10:05;;;;;;;2.88;1.45;;;;;;;14.75;100.00;98877.34;5077998;28;20928;-62
2023/10/26 06:12:33;;;;;;;2.97;1.00;;;;;;;14.64;100.00;98899.44;5078298;28;20064;-62
2023/10/26 06:15:00;;;;;;;3.20;1.00;;;;;;;14.39;100.00;98911.50;5072776;28;20048;-61
2023/10/26 06:17:27;;;;;;;8.25;1.80;;;;;;;13.99;100.00;98922.56;5070483;28;20056;-61
2023/10/26 06:19:55;;;;;;;8.63;2.30;;;;;;;14.02;100.00;98913.50;5069846;28;20052;-61
2023/10/26 06:22:22;;;;;;;12.40;2.05;;;;;;;14.15;100.00;98918.41;5071728;28;20490;-61
2023/10/26 06:24:49;;;;;;;13.07;2.28;;;;;;;13.99;100.00;98920.59;5076591;28;20264;-62
2023/10/26 06:27:19;;;;;;;16.83;3.80;;;;;;;14.19;100.00;98913.66;5078532;28;20257;-63
2023/10/26 06:29:51;;;;;;;17.33;5.00;;;;;;;14.34;100.00;98922.94;5072298;28;20044;-63
2023/10/26 06:32:18;;;;;;;12.75;4.68;;;;;;;14.68;100.00;98916.91;5070978;28;20040;-63
2023/10/26 06:34:46;;;;;;;19.95;3.83;;;;;;;14.71;100.00;98917.31;5079649;28;20497;-63
2023/10/26 06:37:13;;;;;;;17.05;3.72;;;;;;;14.77;100.00;98924.13;5078041;28;20487;-63
2023/10/26 06:39:40;;;;;;;22.38;3.35;;;;;;;15.03;100.00;98933.00;5078027;28;20062;-63
2023/10/26 06:42:08;;;;;;;22.50;3.28;;;;;;;14.71;100.00;98926.44;5075356;28;20048;-64
2023/10/26 06:44:39;;;;;;;16.77;2.55;;;;;;;14.68;100.00;98916.91;5073575;28;20148;-63
2023/10/26 06:47:06;;;;;;;22.35;3.30;;;;;;;14.86;100.00;98927.31;5075792;28;20063;-62
2023/10/26 06:49:34;;;;;;;19.77;3.13;;;;;;;14.71;100.00;98937.53;5071498;28;20048;-63
2023/10/26 06:52:02;;;;;;;21.17;2.70;;;;;;;14.35;100.00;98953.03;5058083;28;20044;-62
2023/10/26 06:54:29;;;;;;;21.13;3.80;;;;;;;14.62;100.00;98970.31;5082656;28;20442;-63
2023/10/26 06:56:57;;;;;;;22.92;4.55;;;;;;;14.91;100.00;98963.81;5070291;28;20047;-62
2023/10/26 06:59:25;;;;;;;16.50;3.45;;;;;;;14.84;100.00;98974.84;5072085;28;20041;-63
2023/10/26 07:01:53;;;;;;;22.33;3.60;;;;;;;14.99;98.30;98973.78;5069729;28;20041;-62
2023/10/26 07:04:36;;;;;;;22.83;3.83;;;;;;;14.76;100.00;98970.44;5071162;28;20056;-63
2023/10/26 07:07:04;;;;;;;22.05;3.78;;;;;;;14.92;100.00;98972.94;5072138;28;20040;-62
2023/10/26 07:09:31;;;;;;;25.58;4.05;;;;;;;14.81;98.73;98985.91;5073226;28;20057;-63
2023/10/26 07:11:58;;;;;;;19.45;3.25;;;;;;;14.80;100.00;98985.13;5076809;28;20075;-61
2023/10/26 07:14:26;;;;;;;26.23;4.10;;;;;;;14.76;99.45;98992.59;5077001;28;20056;-63
2023/10/26 07:16:53;;;;;;;24.67;4.20;;;;;;;14.46;99.82;98995.50;5086496;28;20068;-63
2023/10/26 07:19:20;;;;;;;27.40;5.00;;;;;;;14.52;100.00;99001.50;5084163;28;20051;-62
2023/10/26 07:21:48;;;;;;;24.95;4.15;;;;;;;14.35;100.00;99002.88;5075605;28;20044;-64
2023/10/26 07:24:15;;;;;;;28.13;5.15;;;;;;;14.24;100.00;99017.78;5079207;28;20049;-63
2023/10/26 07:26:42;;;;;;;23.20;3.90;;;;;;;14.31;100.00;99010.34;5078342;28;20041;-64
2023/10/26 07:29:09;;;;;;;23.17;4.38;;;;;;;14.39;100.00;99017.56;5057965;28;20060;-62
2023/10/26 07:31:37;;;;;;;24.55;4.18;;;;;;;14.48;100.00;99031.13;5077311;28;20048;-62
2023/10/26 07:34:05;;;;;;;23.20;3.88;;;;;;;14.37;100.00;99032.97;5079760;28;20056;-63
2023/10/26 07:36:33;;;;;;;23.17;4.15;;;;;;;14.36;100.00;99034.16;5079199;28;20066;-63
2023/10/26 07:39:01;;;;;;;27.08;4.50;;;;;;;14.34;100.00;99028.19;5087561;28;20055;-63
2023/10/26 07:41:48;;;;;;;22.92;3.67;;;;;;;14.46;100.00;99022.38;5069590;28;20052;-62
2023/10/26 07:44:36;;;;;;;22.90;4.47;;;;;;;14.42;100.00;99033.44;5078224;28;20499;-62
2023/10/26 07:47:10;;;;;;;22.42;4.65;;;;;;;14.54;99.54;99038.69;5073462;28;20052;-61
2023/10/26 07:49:37;;;;;;;25.23;4.97;;;;;;;14.30;100.00;99047.53;5072924;28;20059;-61
2023/10/26 07:52:07;;;;;;;37.03;4.60;;;;;;;14.15;100.00;99056.03;5072678;28;20067;-62
2023/10/26 07:54:35;;;;;;;28.00;4.70;;;;;;;14.04;100.00;99064.22;5072576;28;20080;-61
2023/10/26 07:57:02;;;;;;;29.50;4.45;;;;;;;14.04;100.00;99052.31;5073541;28;20040;-62
2023/10/26 07:59:30;;;;;;;30.60;4.60;;;;;;;14.16;100.00;99052.88;5072924;28;20045;-62
2023/10/26 08:01:57;;;;;;;33.80;5.53;;;;;;;14.28;100.00;99060.97;5076817;28;20550;-63
2023/10/26 08:04:26;;;;;;;26.05;4.45;;;;;;;14.28;100.00;99066.50;5071010;28;20052;-62
2023/10/26 08:06:54;;;;;;;33.38;5.82;;;;;;;14.39;100.00;99050.00;5074998;28;20542;-63
2023/10/26 08:09:21;;;;;;;31.90;4.25;;;;;;;14.39;100.00;99053.59;5078166;28;20154;-62
2023/10/26 08:11:48;;;;;;;23.10;4.50;;;;;;;14.62;99.79;99070.06;5079366;28;20039;-62
2023/10/26 08:14:16;;;;;;;21.15;4.25;;;;;;;14.75;98.31;99062.28;5071573;28;20063;-62
2023/10/26 08:17:03;;;;;;;29.92;5.25;;;;;;;14.84;97.63;99082.94;5076688;28;20062;-62
2023/10/26 08:19:30;;;;;;;26.65;4.32;;;;;;;14.78;97.64;99080.91;5074025;28;20056;-63
2023/10/26 08:21:59;;;;;;;28.42;4.28;;;;;;;14.85;97.87;99089.31;5083757;28;20052;-63
2023/10/26 08:24:27;;;;;;;31.10;4.90;;;;;;;14.96;97.43;99090.22;5077640;28;20056;-63
2023/10/26 08:26:54;;;;;;;32.83;5.00;;;;;;;14.91;96.66;99093.31;5079990;28;20502;-62
2023/10/26 08:29:22;;;;;;;25.73;4.30;;;;;;;14.94;96.27;99093.34;5082609;28;20037;-62
2023/10/26 08:31:57;;;;;;;29.95;4.75;;;;;;;14.92;95.04;99092.16;5073589;28;20087;-67
2023/10/26 08:34:27;;;;;;;30.20;4.97;;;;;;;14.97;94.86;99089.81;5075734;28;20055;-64
2023/10/26 08:36:54;;;;;;;29.17;4.67;;;;;;;15.27;94.73;99076.59;5075703;28;20055;-63
2023/10/26 08:39:40;;;;;;;27.60;4.57;;;;;;;15.00;94.36;99091.81;5077664;28;20044;-62
2023/10/26 08:42:08;;;;;;;26.10;4.60;;;;;;;15.07;94.92;99100.22;5075817;28;20052;-63
2023/10/26 08:44:36;;;;;;;21.27;4.30;;;;;;;15.23;94.09;99086.88;5074871;28;20052;-64
2023/10/26 08:47:04;;;;;;;27.83;4.32;;;;;;;15.27;92.86;99098.00;5080000;28;20052;-64
2023/10/26 08:49:33;;;;;;;24.88;3.80;;;;;;;15.12;93.23;99105.41;5075827;28;20051;-62
2023/10/26 08:52:00;;;;;;;25.90;4.32;;;;;;;15.18;93.95;99101.13;5075915;28;20049;-62
2023/10/26 08:54:28;;;;;;;26.25;4.68;;;;;;;15.13;93.72;99106.22;5083339;28;20460;-63
2023/10/26 08:56:55;;;;;;;28.13;4.93;;;;;;;15.13;96.42;99108.97;5076972;28;20530;-62
2023/10/26 08:59:23;;;;;;;28.13;4.22;;;;;;;15.04;98.45;99109.31;5081304;28;20395;-61
2023/10/26 09:01:51;;;;;;;30.45;4.97;;;;;;;15.10;97.70;99107.75;5080603;28;20067;-66
2023/10/26 09:04:18;;;;;;;26.88;4.32;;;;;;;15.15;98.21;99118.50;5073725;28;20056;-62
2023/10/26 09:06:51;;;;;;;21.98;4.72;;;;;;;15.11;97.85;99119.66;5071873;28;20044;-62
2023/10/26 09:09:18;;;;;;;25.63;5.40;;;;;;;15.25;97.61;99117.81;5077142;28;20040;-62
2023/10/26 09:11:48;;;;;;;28.88;4.65;;;;;;;15.16;98.02;99120.09;5069660;28;20044;-62
2023/10/26 09:14:21;;;;;;;28.55;5.00;;;;;;;15.16;97.59;99117.34;5078676;28;20060;-62
2023/10/26 09:16:49;;;;;;;30.20;5.72;;;;;;;15.52;95.88;99112.91;5069627;28;20052;-61
2023/10/26 09:19:19;;;;;;;29.30;4.93;;;;;;;15.38;94.99;99110.78;5074352;28;20510;-61
2023/10/26 09:21:50;;;;;;;27.83;6.00;;;;;;;15.38;94.38;99119.09;5073837;28;20051;-64
2023/10/26 09:24:24;;;;;;;28.63;5.30;;;;;;;15.18;94.56;99131.63;5071933;28;20302;-62
2023/10/26 09:26:56;;;;;;;31.30;5.10;;;;;;;15.27;95.70;99129.31;5076892;28;20048;-62
2023/10/26 09:29:40;;;;;;;25.63;4.70;;;;;;;15.34;94.46;99129.38;5076099;28;20067;-63
2023/10/26 09:32:08;;;;;;;26.10;4.68;;;;;;;15.32;94.35;99134.53;5069789;28;20052;-63
2023/10/26 09:34:41;;;;;;;28.67;5.05;;;;;;;15.80;91.68;99129.75;5086366;28;20056;-61
2023/10/26 09:37:09;;;;;;;20.98;4.07;;;;;;;15.55;91.72;99129.56;5076385;28;20044;-62
2023/10/26 09:39:38;;;;;;;23.58;4.43;;;;;;;15.48;93.96;99132.28;5072726;28;20044;-60
2023/10/26 09:42:09;;;;;;;21.17;3.90;;;;;;;15.49;96.54;99146.97;5077099;28;20052;-62
2023/10/26 09:44:38;;;;;;;25.58;4.38;;;;;;;15.32;95.24;99140.06;5070947;28;20059;-62
2023/10/26 09:47:06;;;;;;;25.70;4.63;;;;;;;15.35;93.91;99141.28;5070527;28;20053;-62
2023/10/26 09:49:34;;;;;;;24.42;5.35;;;;;;;15.56;96.72;99144.25;5076861;28;20047;-62
2023/10/26 09:52:02;;;;;;;20.95;4.53;;;;;;;15.39;93.60;99150.44;5066171;28;20052;-62
2023/10/26 09:54:40;;;;;;;28.50;5.20;;;;;;;15.52;93.20;99140.66;5072770;28;20049;-63
2023/10/26 09:57:13;;;;;;;21.00;4.53;;;;;;;15.50;95.39;99127.16;5075524;28;20123;-62
2023/10/26 09:59:41;;;;;;;30.42;5.13;;;;;;;15.43;92.45;99121.56;5070621;28;20075;-62
2023/10/26 10:02:15;;;;;;;25.08;5.22;;;;;;;15.41;94.25;99112.81;5080814;28;20056;-62
2023/10/26 10:04:44;;;;;;;29.83;5.18;;;;;;;15.53;93.48;99104.19;5079548;28;20499;-63
2023/10/26 10:07:19;;;;;;;27.90;5.07;;;;;;;15.50;91.42;99099.41;5074923;28;20780;-62
2023/10/26 10:10:05;;;;;;;23.67;5.75;;;;;;;15.68;91.45;99093.97;5071310;28;20045;-63
2023/10/26 10:12:35;;;;;;;36.20;7.75;;;;;;;15.70;90.32;99095.22;5062368;28;20052;-63
2023/10/26 10:15:06;;;;;;;24.77;6.63;;;;;;;15.56;92.40;99108.97;5073467;28;20514;-63
2023/10/26 10:17:53;;;;;;;29.23;5.78;;;;;;;15.71;91.62;99102.34;5081632;28;20460;-63
2023/10/26 10:20:20;;;;;;;30.40;5.43;;;;;;;15.59;90.86;99099.88;5083254;28;20108;-63
2023/10/26 10:22:53;;;;;;;25.35;4.70;;;;;;;15.69;92.78;99106.69;5074218;28;20422;-63
2023/10/26 10:25:23;;;;;;;21.05;4.63;;;;;;;15.74;90.68;99112.66;5070767;28;20056;-61
2023/10/26 10:27:50;;;;;;;28.52;7.40;;;;;;;15.76;92.77;99115.03;5074625;28;20048;-64
2023/10/26 10:30:27;;;;;;;30.20;11.38;;;;;;;15.89;93.10;99121.88;5072909;28;20037;-62
2023/10/26 10:32:56;;;;;;;45.05;19.13;;;;;;;16.37;95.48;99115.00;5071552;28;20059;-62
2023/10/26 10:35:29;;;;;;;40.90;18.40;;;;;;;16.35;92.02;99122.13;5072566;28;20049;-64
2023/10/26 10:38:19;;;;;;;32.70;15.02;;;;;;;16.64;94.34;99129.44;5071388;28;20043;-63
2023/10/26 10:40:55;;;;;;;35.17;14.38;;;;;;;16.80;93.60;99133.47;5069066;28;20055;-62
2023/10/26 10:43:36;;;;;;;30.40;11.50;;;;;;;16.48;88.92;99140.09;5081370;28;20052;-61
2023/10/26 10:46:25;;;;;;;35.00;10.82;;;;;;;16.53;89.22;99137.72;5073846;28;20459;-63
2023/10/26 10:48:53;;;;;;;;;;;;;;;16.82;91.48;99135.84;5061898;28;20044;-62
2023/10/26 10:51:20;;;;;;;26.75;9.50;;;;;;;16.94;90.01;99135.47;5071898;28;19928;-63
2023/10/26 10:53:50;;;;;;;37.35;13.23;;;;;;;16.63;86.40;99128.63;5072900;28;20721;-62
2023/10/26 10:56:17;;;;;;;26.50;9.17;;;;;;;16.73;89.55;99130.66;5070563;28;20055;-63
2023/10/26 10:58:44;;;;;;;25.02;7.85;;;;;;;16.85;88.06;99132.28;5070402;28;20052;-61
2023/10/26 11:01:20;;;;;;;21.15;7.80;;;;;;;16.65;85.81;99131.81;5078969;28;20052;-62
2023/10/26 11:03:48;;;;;;;20.65;7.70;;;;;;;16.87;88.22;99129.91;5070926;28;20048;-63
2023/10/26 11:06:16;;;;;;;24.52;9.80;;;;;;;16.58;86.46;99125.44;5072278;28;20052;-63
2023/10/26 11:08:44;;;;;;;33.25;17.08;;;;;;;16.94;88.50;99118.78;5083143;28;20043;-62
2023/10/26 11:11:27;;;;;;;39.55;15.82;;;;;;;16.99;86.42;99125.94;5072342;28;20736;-64
2023/10/26 11:14:10;;;;;;;39.15;15.13;;;;;;;16.73;86.59;99124.28;5070902;28;20384;-63
2023/10/26 11:16:40;;;;;;;33.85;14.32;;;;;;;17.01;90.30;99129.13;5075974;28;20052;-62
2023/10/26 11:19:14;;;;;;;38.00;14.68;;;;;;;16.71;87.41;99127.47;5072361;28;20066;-62
2023/10/26 11:21:41;;;;;;;29.25;10.45;;;;;;;16.60;84.04;99115.50;5071450;28;20641;-62
2023/10/26 11:24:10;;;;;;;31.20;10.35;;;;;;;16.74;85.03;99110.00;5072062;28;20047;-63
2023/10/26 11:26:38;;;;;;;24.77;9.43;;;;;;;16.48;83.44;99110.31;5077660;28;20052;-63
2023/10/26 11:29:16;;;;;;;26.75;10.00;;;;;;;16.79;83.95;99104.03;5072637;28;20060;-63
2023/10/26 11:31:43;;;;;;;29.67;10.70;;;;;;;16.92;83.11;99114.81;5075665;28;20044;-62